createdAt,value
2018-08-17T00:02:05.132Z,17.67
2018-08-17T00:05:02.971Z,17.66
2018-08-17T00:08:00.374Z,17.43
2018-08-17T00:10:58.325Z,17.37
2018-08-17T00:13:56.163Z,17.44
2018-08-17T00:16:54.060Z,17.42
2018-08-17T00:19:52.001Z,17.34
2018-08-17T00:22:49.491Z,17.23
2018-08-17T00:25:46.471Z,17.26
2018-08-17T00:28:44.351Z,17.18
2018-08-17T00:31:42.280Z,17.01
2018-08-17T00:34:39.447Z,17.05
2018-08-17T00:37:36.677Z,17.18
2018-08-17T00:40:34.672Z,17.16
2018-08-17T00:43:31.719Z,16.96
2018-08-17T00:46:29.838Z,16.85
2018-08-17T00:49:27.904Z,16.92
2018-08-17T00:52:25.171Z,16.93
2018-08-17T00:55:22.831Z,16.85
2018-08-17T00:58:20.026Z,16.95
2018-08-17T01:01:17.915Z,16.84
2018-08-17T01:04:15.807Z,16.93
2018-08-17T01:07:13.724Z,16.90
2018-08-17T01:10:11.253Z,16.85
2018-08-17T01:13:08.645Z,16.85
2018-08-17T01:16:06.520Z,16.73
2018-08-17T01:19:04.598Z,16.59
2018-08-17T01:22:02.474Z,16.40
2018-08-17T01:25:00.472Z,16.42
2018-08-17T01:27:57.563Z,16.45
2018-08-17T01:30:55.371Z,16.46
2018-08-17T01:33:52.412Z,16.34
2018-08-17T01:36:50.327Z,16.40
2018-08-17T01:39:48.307Z,16.54
2018-08-17T01:42:46.048Z,16.59
2018-08-17T01:45:43.981Z,16.61
2018-08-17T01:48:41.934Z,16.50
2018-08-17T01:51:39.706Z,16.50
2018-08-17T01:54:37.751Z,16.34
2018-08-17T01:57:35.657Z,16.32
2018-08-17T02:00:33.622Z,16.27
2018-08-17T02:03:31.597Z,16.43
2018-08-17T02:06:29.696Z,16.42
2018-08-17T02:09:29.720Z,16.39
2018-08-17T02:12:27.548Z,16.39
2018-08-17T02:15:25.636Z,16.41
2018-08-17T02:18:23.415Z,16.38
2018-08-17T02:21:21.228Z,16.28
2018-08-17T02:24:19.353Z,16.10
2018-08-17T02:27:16.944Z,16.09
2018-08-17T02:30:15.087Z,16.13
2018-08-17T02:33:12.269Z,16.20
2018-08-17T02:36:10.428Z,16.29
2018-08-17T02:39:07.567Z,16.29
2018-08-17T02:42:05.737Z,16.29
2018-08-17T02:45:02.825Z,16.29
2018-08-17T02:48:00.763Z,16.32
2018-08-17T02:50:58.601Z,16.08
2018-08-17T02:53:56.292Z,15.97
2018-08-17T02:56:54.320Z,16.00
2018-08-17T02:59:52.169Z,15.64
2018-08-17T03:02:50.028Z,15.68
2018-08-17T03:05:47.836Z,15.74
2018-08-17T03:08:45.784Z,15.89
2018-08-17T03:11:42.758Z,15.92
2018-08-17T03:17:44.787Z,15.98
2018-08-17T03:20:42.816Z,15.83
2018-08-17T03:23:40.899Z,15.43
2018-08-17T03:26:38.812Z,15.29
2018-08-17T03:29:36.123Z,15.45
2018-08-17T03:32:33.329Z,15.54
2018-08-17T03:35:31.251Z,15.63
2018-08-17T03:38:29.198Z,15.68
2018-08-17T03:41:26.275Z,15.45
2018-08-17T03:44:23.872Z,15.50
2018-08-17T03:47:21.170Z,15.64
2018-08-17T03:50:19.980Z,15.67
2018-08-17T03:53:17.235Z,15.72
2018-08-17T03:56:14.580Z,15.71
2018-08-17T03:59:12.652Z,15.65
2018-08-17T04:02:09.793Z,15.52
2018-08-17T04:05:07.803Z,15.40
2018-08-17T04:08:05.777Z,15.57
2018-08-17T04:11:03.759Z,15.65
2018-08-17T04:14:01.689Z,15.81
2018-08-17T04:16:59.711Z,15.90
2018-08-17T04:19:57.683Z,16.01
2018-08-17T04:22:55.588Z,16.15
2018-08-17T04:25:52.721Z,16.25
2018-08-17T04:28:50.768Z,16.36
2018-08-17T04:31:48.996Z,16.43
2018-08-17T04:34:46.954Z,16.42
2018-08-17T04:37:45.127Z,16.53
2018-08-17T04:40:43.271Z,16.63
2018-08-17T04:43:40.769Z,16.62
2018-08-17T04:46:38.556Z,16.64
2018-08-17T04:49:36.573Z,16.81
2018-08-17T04:52:34.043Z,16.86
2018-08-17T04:55:31.749Z,16.97
2018-08-17T04:58:29.836Z,17.17
2018-08-17T05:01:27.650Z,17.41
2018-08-17T05:04:25.780Z,17.71
2018-08-17T05:07:23.703Z,18.02
2018-08-17T05:10:21.588Z,18.14
2018-08-17T05:13:19.712Z,18.28
2018-08-17T05:16:17.664Z,18.44
2018-08-17T05:19:15.744Z,18.59
2018-08-17T05:22:13.821Z,19.01
2018-08-17T05:25:11.972Z,19.26
2018-08-17T05:28:09.728Z,19.30
2018-08-17T05:31:07.307Z,19.34
2018-08-17T05:34:04.874Z,19.43
2018-08-17T05:37:02.048Z,19.90
2018-08-17T05:39:59.883Z,20.35
2018-08-17T05:42:56.961Z,20.63
2018-08-17T05:45:54.322Z,20.85
2018-08-17T05:48:51.493Z,21.40
2018-08-17T05:51:48.758Z,21.52
2018-08-17T05:54:45.933Z,21.54
2018-08-17T05:57:43.252Z,22.50
2018-08-17T06:00:41.317Z,22.64
2018-08-17T06:03:39.905Z,22.83
2018-08-17T06:06:37.976Z,22.55
2018-08-17T06:09:35.279Z,21.80
2018-08-17T06:12:32.257Z,21.20
2018-08-17T06:15:30.178Z,20.93
2018-08-17T06:18:27.615Z,20.54
2018-08-17T06:21:25.512Z,20.45
2018-08-17T06:24:22.943Z,20.45
2018-08-17T06:27:20.932Z,20.46
2018-08-17T06:30:17.875Z,20.10
2018-08-17T06:33:15.870Z,20.23
2018-08-17T06:36:13.916Z,20.33
2018-08-17T06:39:11.788Z,20.48
2018-08-17T06:42:08.900Z,20.40
2018-08-17T06:45:06.909Z,20.43
2018-08-17T06:48:04.881Z,20.44
2018-08-17T06:51:02.588Z,20.47
2018-08-17T06:54:00.558Z,20.43
2018-08-17T06:56:57.721Z,20.33
2018-08-17T06:59:55.773Z,20.21
2018-08-17T07:02:53.966Z,20.35
2018-08-17T07:05:51.160Z,20.39
2018-08-17T07:08:48.234Z,20.33
2018-08-17T07:11:45.441Z,20.36
2018-08-17T07:14:42.748Z,20.11
2018-08-17T07:17:40.652Z,20.37
2018-08-17T07:20:37.992Z,20.53
2018-08-17T07:23:35.919Z,20.54
2018-08-17T07:26:33.693Z,20.39
2018-08-17T07:29:31.624Z,20.58
2018-08-17T07:32:28.819Z,20.61
2018-08-17T07:35:28.045Z,20.83
2018-08-17T07:38:25.953Z,20.70
2018-08-17T07:41:23.309Z,20.61
2018-08-17T07:44:21.483Z,20.63
2018-08-17T07:47:19.672Z,20.60
2018-08-17T07:50:20.948Z,20.55
2018-08-17T07:53:18.386Z,20.63
2018-08-17T07:56:16.262Z,20.77
2018-08-17T07:59:13.348Z,20.67
2018-08-17T08:02:10.640Z,20.53
2018-08-17T08:05:07.981Z,20.47
2018-08-17T08:08:05.508Z,20.41
2018-08-17T08:11:03.096Z,20.49
2018-08-17T08:14:01.072Z,20.46
2018-08-17T08:16:59.024Z,20.23
2018-08-17T08:19:57.064Z,20.41
2018-08-17T08:22:54.983Z,20.61
2018-08-17T08:25:54.128Z,20.61
2018-08-17T08:28:52.520Z,20.58
2018-08-17T08:31:49.678Z,20.35
2018-08-17T08:34:47.762Z,20.44
2018-08-17T08:37:45.344Z,20.36
2018-08-17T08:40:43.067Z,20.24
2018-08-17T08:43:40.840Z,20.23
2018-08-17T08:46:37.924Z,20.18
2018-08-17T08:49:36.143Z,20.22
2018-08-17T08:52:34.272Z,20.23
2018-08-17T08:55:31.560Z,19.98
2018-08-17T08:58:29.559Z,19.74
2018-08-17T09:01:27.569Z,19.48
2018-08-17T09:04:24.996Z,19.61
2018-08-17T09:07:22.752Z,19.57
2018-08-17T09:10:20.931Z,19.56
2018-08-17T09:13:18.232Z,19.44
2018-08-17T09:16:16.324Z,19.35
2018-08-17T09:19:14.252Z,19.34
2018-08-17T09:22:12.159Z,19.92
2018-08-17T09:25:10.045Z,20.21
2018-08-17T09:28:07.980Z,20.45
2018-08-17T09:31:06.023Z,20.72
2018-08-17T09:34:03.188Z,20.73
2018-08-17T09:37:00.647Z,20.68
2018-08-17T09:39:58.827Z,20.52
2018-08-17T09:42:56.872Z,20.77
2018-08-17T09:45:53.880Z,21.03
2018-08-17T09:48:50.993Z,21.27
2018-08-17T09:51:49.095Z,21.68
2018-08-17T09:54:47.266Z,21.65
2018-08-17T09:57:44.578Z,21.32
2018-08-17T10:00:52.539Z,21.17
2018-08-17T10:03:51.341Z,20.88
2018-08-17T10:06:55.121Z,21.05
2018-08-17T10:09:59.069Z,21.75
2018-08-17T10:12:58.289Z,22.24
2018-08-17T10:15:56.393Z,21.94
2018-08-17T10:18:54.583Z,22.18
2018-08-17T10:21:58.012Z,22.61
2018-08-17T10:24:55.128Z,22.82
2018-08-17T10:27:58.158Z,23.07
2018-08-17T10:30:55.609Z,23.15
2018-08-17T10:33:52.698Z,23.17
2018-08-17T10:36:50.840Z,22.95
2018-08-17T10:39:47.902Z,22.98
2018-08-17T10:42:45.228Z,22.95
2018-08-17T10:45:42.651Z,23.16
2018-08-17T10:48:40.100Z,23.03
2018-08-17T10:51:44.903Z,23.70
2018-08-17T10:54:42.134Z,24.78
2018-08-17T10:57:39.273Z,25.95
2018-08-17T11:00:36.584Z,26.67
2018-08-17T11:03:34.752Z,27.12
2018-08-17T11:06:32.754Z,27.54
2018-08-17T11:09:31.141Z,27.75
2018-08-17T11:12:29.171Z,26.98
2018-08-17T11:15:28.310Z,26.75
2018-08-17T11:18:26.440Z,26.60
2018-08-17T11:21:24.459Z,27.46
2018-08-17T11:24:22.517Z,26.28
2018-08-17T11:27:19.616Z,27.74
2018-08-17T11:30:17.009Z,26.62
2018-08-17T11:33:15.237Z,26.26
2018-08-17T11:36:14.195Z,25.97
2018-08-17T11:39:12.689Z,25.22
2018-08-17T11:42:10.249Z,24.72
2018-08-17T11:45:08.264Z,24.15
2018-08-17T11:51:10.947Z,24.54
2018-08-17T11:54:08.548Z,24.26
2018-08-17T11:57:06.496Z,24.40
2018-08-17T12:00:05.677Z,24.71
2018-08-17T12:03:03.643Z,24.00
2018-08-17T12:06:00.726Z,23.92
2018-08-17T12:08:58.040Z,24.09
2018-08-17T12:11:55.864Z,24.03
2018-08-17T12:14:54.844Z,24.58
2018-08-17T12:17:52.788Z,24.94
2018-08-17T12:20:50.588Z,24.88
2018-08-17T12:23:47.706Z,25.22
2018-08-17T12:26:53.344Z,25.31
2018-08-17T12:29:50.316Z,25.34
2018-08-17T12:32:48.124Z,25.40
2018-08-17T12:35:45.897Z,25.17
2018-08-17T12:38:43.852Z,24.93
2018-08-17T12:41:41.069Z,24.74
2018-08-17T12:44:40.221Z,24.72
2018-08-17T12:47:38.356Z,24.97
2018-08-17T12:50:36.145Z,24.60
2018-08-17T12:53:34.147Z,24.43
2018-08-17T12:56:32.229Z,24.09
2018-08-17T12:59:30.197Z,24.11
2018-08-17T13:02:27.479Z,24.12
2018-08-17T13:05:24.805Z,24.18
2018-08-17T13:08:22.063Z,24.57
2018-08-17T13:11:22.122Z,24.69
2018-08-17T13:14:19.488Z,24.76
2018-08-17T13:17:16.712Z,24.71
2018-08-17T13:20:14.163Z,25.01
2018-08-17T13:23:11.911Z,24.74
2018-08-17T13:26:09.914Z,24.13
2018-08-17T13:29:07.171Z,24.07
2018-08-17T13:32:05.559Z,24.13
2018-08-17T13:35:02.982Z,24.17
2018-08-17T13:38:00.872Z,24.21
2018-08-17T13:40:58.267Z,24.53
2018-08-17T13:43:56.298Z,24.69
2018-08-17T13:46:53.693Z,24.20
2018-08-17T13:49:51.751Z,24.09
2018-08-17T13:52:48.903Z,23.73
2018-08-17T13:55:46.181Z,23.80
2018-08-17T13:58:43.581Z,23.40
2018-08-17T14:01:41.680Z,23.47
2018-08-17T14:04:38.996Z,23.57
2018-08-17T14:07:36.922Z,23.32
2018-08-17T14:10:34.939Z,23.38
2018-08-17T14:13:33.079Z,23.63
2018-08-17T14:16:30.244Z,23.83
2018-08-17T14:19:36.617Z,23.75
2018-08-17T14:22:33.907Z,23.75
2018-08-17T14:25:31.379Z,23.49
2018-08-17T14:28:28.646Z,23.66
2018-08-17T14:31:26.065Z,23.79
2018-08-17T14:34:23.491Z,23.75
2018-08-17T14:37:21.116Z,24.00
2018-08-17T14:40:19.156Z,24.20
2018-08-17T14:43:17.323Z,24.06
2018-08-17T14:46:14.739Z,23.84
2018-08-17T14:49:12.264Z,23.50
2018-08-17T14:52:09.923Z,23.49
2018-08-17T14:55:07.866Z,23.06
2018-08-17T14:58:04.920Z,23.28
2018-08-17T15:01:02.959Z,23.13
2018-08-17T15:04:00.819Z,23.18
2018-08-17T15:06:58.787Z,23.45
2018-08-17T15:09:56.694Z,23.98
2018-08-17T15:12:54.781Z,24.10
2018-08-17T15:15:52.775Z,24.26
2018-08-17T15:18:50.108Z,24.41
2018-08-17T15:21:47.619Z,24.23
2018-08-17T15:24:44.860Z,23.51
2018-08-17T15:30:47.377Z,23.47
2018-08-17T15:33:45.297Z,23.63
2018-08-17T15:36:42.825Z,23.55
2018-08-17T15:39:40.500Z,23.30
2018-08-17T15:42:37.959Z,23.05
2018-08-17T15:45:36.014Z,22.79
2018-08-17T15:48:33.289Z,22.53
2018-08-17T15:51:31.371Z,22.60
2018-08-17T15:54:28.532Z,22.46
2018-08-17T15:57:26.507Z,22.53
2018-08-17T16:00:28.823Z,22.66
2018-08-17T16:03:26.060Z,22.63
2018-08-17T16:06:23.907Z,22.36
2018-08-17T16:09:22.145Z,22.23
2018-08-17T16:12:20.156Z,22.27
2018-08-17T16:15:17.476Z,22.48
2018-08-17T16:18:14.656Z,22.72
2018-08-17T16:21:12.016Z,22.67
2018-08-17T16:24:10.295Z,22.71
2018-08-17T16:27:07.376Z,22.61
2018-08-17T16:30:05.231Z,22.32
2018-08-17T16:33:02.548Z,22.30
2018-08-17T16:35:59.949Z,22.50
2018-08-17T16:38:58.132Z,22.34
2018-08-17T16:41:55.613Z,22.34
2018-08-17T16:44:53.632Z,22.16
2018-08-17T16:47:51.607Z,21.71
2018-08-17T16:50:49.907Z,21.78
2018-08-17T16:53:48.060Z,21.67
2018-08-17T16:56:45.588Z,21.63
2018-08-17T16:59:43.625Z,21.68
2018-08-17T17:02:41.275Z,21.81
2018-08-17T17:05:38.855Z,21.76
2018-08-17T17:08:36.196Z,21.78
2018-08-17T17:11:33.635Z,21.77
2018-08-17T17:14:30.863Z,21.77
2018-08-17T17:17:28.813Z,21.96
2018-08-17T17:20:27.705Z,21.77
2018-08-17T17:23:24.831Z,21.83
2018-08-17T17:26:23.046Z,21.92
2018-08-17T17:29:20.400Z,21.84
2018-08-17T17:32:18.314Z,21.75
2018-08-17T17:35:15.593Z,21.63
2018-08-17T17:38:13.546Z,21.66
2018-08-17T17:41:10.795Z,21.66
2018-08-17T17:44:08.355Z,21.57
2018-08-17T17:47:05.349Z,21.56
2018-08-17T17:50:02.399Z,21.60
2018-08-17T17:53:00.597Z,21.50
2018-08-17T17:55:59.793Z,21.43
2018-08-17T17:58:57.922Z,21.39
2018-08-17T18:01:56.079Z,21.28
2018-08-17T18:04:54.069Z,21.19
2018-08-17T18:08:00.101Z,21.16
2018-08-17T18:10:58.084Z,21.12
2018-08-17T18:13:56.169Z,21.03
2018-08-17T18:16:54.035Z,20.92
2018-08-17T18:19:52.028Z,20.74
2018-08-17T18:22:49.859Z,20.67
2018-08-17T18:25:47.880Z,20.63
2018-08-17T18:28:52.054Z,20.53
2018-08-17T18:31:49.127Z,20.49
2018-08-17T18:34:47.161Z,20.45
2018-08-17T18:37:44.668Z,20.36
2018-08-17T18:40:42.948Z,20.35
2018-08-17T18:43:41.032Z,20.24
2018-08-17T18:46:38.174Z,20.12
2018-08-17T18:49:35.413Z,20.00
2018-08-17T18:52:32.747Z,19.87
2018-08-17T18:55:30.879Z,19.48
2018-08-17T18:58:28.823Z,19.11
2018-08-17T19:01:26.995Z,18.94
2018-08-17T19:04:24.266Z,18.91
2018-08-17T19:07:21.416Z,18.82
2018-08-17T19:10:19.535Z,18.75
2018-08-17T19:13:17.503Z,18.66
2018-08-17T19:16:15.440Z,18.56
2018-08-17T19:19:13.216Z,18.46
2018-08-17T19:22:11.331Z,18.32
2018-08-17T19:25:09.396Z,18.18
2018-08-17T19:28:07.456Z,18.18
2018-08-17T19:31:05.568Z,18.07
2018-08-17T19:34:03.719Z,18.02
2018-08-17T19:37:00.896Z,17.92
2018-08-17T19:39:58.844Z,17.93
2018-08-17T19:42:56.682Z,17.81
2018-08-17T19:45:54.739Z,17.63
2018-08-17T19:48:52.539Z,17.55
2018-08-17T19:51:49.576Z,17.39
2018-08-17T19:54:46.638Z,17.21
2018-08-17T19:57:43.848Z,17.09
2018-08-17T20:00:40.984Z,17.09
2018-08-17T20:03:39.082Z,17.02
2018-08-17T20:06:37.071Z,16.94
2018-08-17T20:09:35.003Z,16.92
2018-08-17T20:12:32.757Z,16.83
2018-08-17T20:15:30.084Z,16.77
2018-08-17T20:18:27.688Z,16.65
2018-08-17T20:21:25.557Z,16.48
2018-08-17T20:24:23.416Z,16.43
2018-08-17T20:27:21.462Z,16.38
2018-08-17T20:30:27.685Z,16.32
2018-08-17T20:33:34.786Z,16.16
2018-08-17T20:36:37.004Z,16.06
2018-08-17T20:39:34.908Z,15.95
2018-08-17T20:42:32.759Z,15.98
2018-08-17T20:45:31.638Z,15.88
2018-08-17T20:48:28.804Z,15.83
2018-08-17T20:51:33.899Z,15.68
2018-08-17T20:54:31.837Z,15.69
2018-08-17T20:57:28.883Z,15.40
2018-08-17T21:00:26.714Z,15.29
2018-08-17T21:03:24.406Z,15.25
2018-08-17T21:06:22.496Z,15.30
2018-08-17T21:09:21.388Z,15.24
2018-08-17T21:12:18.384Z,15.33
2018-08-17T21:15:16.368Z,15.40
2018-08-17T21:18:14.546Z,15.44
2018-08-17T21:21:12.506Z,15.39
2018-08-17T21:24:09.751Z,15.34
2018-08-17T21:27:07.197Z,15.22
2018-08-17T21:30:04.502Z,15.20
2018-08-17T21:33:01.724Z,15.07
2018-08-17T21:35:59.682Z,14.96
2018-08-17T21:38:57.870Z,14.81
2018-08-17T21:41:57.092Z,14.68
2018-08-17T21:44:54.956Z,14.73
2018-08-17T21:47:52.903Z,14.76
2018-08-17T21:50:50.086Z,14.80
2018-08-17T21:53:47.951Z,14.81
2018-08-17T21:56:46.086Z,14.63
2018-08-17T21:59:50.212Z,14.50
2018-08-17T22:02:48.319Z,14.39
2018-08-17T22:05:45.678Z,14.38
2018-08-17T22:08:43.476Z,14.42
2018-08-17T22:11:48.849Z,14.36
2018-08-17T22:14:46.597Z,14.37
2018-08-17T22:17:50.106Z,14.37
2018-08-17T22:20:47.969Z,14.21
2018-08-17T22:23:45.316Z,13.89
2018-08-17T22:26:42.644Z,13.97
2018-08-17T22:29:40.878Z,14.04
2018-08-17T22:32:37.929Z,14.09
2018-08-17T22:35:35.541Z,14.10
2018-08-17T22:38:33.428Z,14.13
2018-08-17T22:41:31.476Z,14.10
2018-08-17T22:44:29.709Z,13.88
2018-08-17T22:47:35.643Z,13.69
2018-08-17T22:50:33.641Z,13.70
2018-08-17T22:53:31.651Z,13.73
2018-08-17T22:56:29.805Z,13.74
2018-08-17T22:59:27.861Z,13.75
2018-08-17T23:02:25.224Z,13.72
2018-08-17T23:05:26.581Z,13.80
2018-08-17T23:08:24.647Z,13.70
2018-08-17T23:11:26.014Z,13.47
2018-08-17T23:14:23.807Z,13.49
2018-08-17T23:17:21.184Z,13.58
2018-08-17T23:20:19.401Z,13.51
2018-08-17T23:23:17.344Z,13.50
2018-08-17T23:26:14.844Z,13.28
2018-08-17T23:29:12.280Z,13.21
2018-08-17T23:32:09.455Z,13.14
2018-08-17T23:35:06.458Z,13.17
2018-08-17T23:38:03.575Z,13.27
2018-08-17T23:41:01.730Z,13.38
2018-08-17T23:43:59.809Z,13.35
2018-08-17T23:46:56.903Z,13.14
2018-08-17T23:49:54.220Z,13.03
2018-08-17T23:52:51.184Z,12.96
2018-08-17T23:55:48.715Z,12.94
